ASA226 EDDH-LIMC
Flight info
| Callsign | ASA226 |
|---|---|
| Flight time | 2h 8m |
| Altitude | 37000 |
| Route | AMLUH2G/33 AMLUH M852 DENIX DCT ZUCKA DCT EXITI DCT BERAS/N0453F380 DCT OLPIX/N0458F370 DCT EKPEB DCT RENTA DCT ATPED DCT LUSIL/N0404F190 M984 EVRIP |
| Aircraft | B38M/M-SDE1FGHILORVWXY/HB1 |
Departure
| Time | 2026-05-05 18:47 |
|---|---|
| Airport | Hamburg Helmut Schmidt Airport (EDDH) |
Arrival
| Time | 2026-05-05 20:56 |
|---|---|
| Airport | Milan Malpensa International Airport (LIMC) |
| Time | Latitude | Longitude | Altitude | Speed | Heading |
|---|---|---|---|---|---|
| 2026-05-05 18:29 | 53.63374 | 10.00237 | 47 ft | 0 kts | 177° |
| 2026-05-05 18:30 | 53.63362 | 10.00236 | 48 ft | 0 kts | 184° |
| 2026-05-05 18:32 | 53.63360 | 10.00236 | 48 ft | 1 kts | 185° |
| 2026-05-05 18:32 | 53.63359 | 10.00236 | 48 ft | 0 kts | 185° |
| 2026-05-05 18:38 | 53.63358 | 10.00235 | 48 ft | 0 kts | 185° |
| 2026-05-05 18:39 | 53.63350 | 10.00234 | 48 ft | 6 kts | 185° |
| 2026-05-05 18:39 | 53.63256 | 10.00243 | 48 ft | 19 kts | 174° |
| 2026-05-05 18:40 | 53.63147 | 10.00253 | 46 ft | 14 kts | 175° |
| 2026-05-05 18:40 | 53.63056 | 10.00256 | 48 ft | 4 kts | 191° |
| 2026-05-05 18:40 | 53.63005 | 10.00220 | 48 ft | 3 kts | 213° |
| 2026-05-05 18:40 | 53.62964 | 10.00162 | 47 ft | 6 kts | 224° |
| 2026-05-05 18:41 | 53.62937 | 10.00123 | 48 ft | 7 kts | 216° |
| 2026-05-05 18:41 | 53.62901 | 10.00082 | 47 ft | 7 kts | 211° |
| 2026-05-05 18:41 | 53.62871 | 10.00038 | 48 ft | 4 kts | 233° |
| 2026-05-05 18:41 | 53.62852 | 9.99984 | 49 ft | 0 kts | 242° |
| 2026-05-05 18:45 | 53.62845 | 9.99961 | 46 ft | 7 kts | 243° |
| 2026-05-05 18:45 | 53.62822 | 9.99814 | 50 ft | 19 kts | 292° |
| 2026-05-05 18:46 | 53.62861 | 9.99750 | 49 ft | 0 kts | 332° |
| 2026-05-05 18:46 | 53.62870 | 9.99742 | 50 ft | 14 kts | 332° |
| 2026-05-05 18:47 | 53.63204 | 9.99453 | 47 ft | 93 kts | 332° |
| 2026-05-05 18:47 | 53.63995 | 9.98769 | 55 ft | 154 kts | 335° |
| 2026-05-05 18:47 | 53.65023 | 9.97860 | 413 ft | 181 kts | 335° |
| 2026-05-05 18:47 | 53.66247 | 9.96888 | 997 ft | 205 kts | 336° |
| 2026-05-05 18:48 | 53.67461 | 9.95820 | 2242 ft | 194 kts | 337° |
| 2026-05-05 18:48 | 53.68750 | 9.94891 | 2908 ft | 208 kts | 354° |
| 2026-05-05 18:48 | 53.70203 | 9.94816 | 3758 ft | 209 kts | 2° |
| 2026-05-05 18:48 | 53.71675 | 9.94828 | 4623 ft | 216 kts | 7° |
| 2026-05-05 18:49 | 53.73121 | 9.95531 | 5437 ft | 219 kts | 30° |
| 2026-05-05 18:49 | 53.74254 | 9.97285 | 6217 ft | 228 kts | 57° |
| 2026-05-05 18:49 | 53.74796 | 9.99829 | 6931 ft | 237 kts | 85° |
| 2026-05-05 18:49 | 53.74577 | 10.02585 | 7691 ft | 241 kts | 115° |
| 2026-05-05 18:50 | 53.73731 | 10.05130 | 8281 ft | 256 kts | 121° |
| 2026-05-05 18:50 | 53.72808 | 10.07837 | 8797 ft | 276 kts | 121° |
| 2026-05-05 18:50 | 53.71830 | 10.10738 | 9376 ft | 292 kts | 121° |
| 2026-05-05 18:50 | 53.70814 | 10.13768 | 9819 ft | 299 kts | 121° |
| 2026-05-05 18:51 | 53.69788 | 10.16827 | 9879 ft | 299 kts | 122° |
| 2026-05-05 18:51 | 53.68500 | 10.19515 | 9859 ft | 292 kts | 145° |
| 2026-05-05 18:51 | 53.66712 | 10.21054 | 9893 ft | 288 kts | 165° |
| 2026-05-05 18:51 | 53.64796 | 10.22056 | 9891 ft | 289 kts | 166° |
| 2026-05-05 18:52 | 53.62867 | 10.23020 | 9888 ft | 289 kts | 166° |
| 2026-05-05 18:52 | 53.60930 | 10.23954 | 9891 ft | 289 kts | 167° |
| 2026-05-05 18:52 | 53.58993 | 10.24869 | 9890 ft | 289 kts | 167° |
| 2026-05-05 18:52 | 53.56990 | 10.25802 | 10155 ft | 308 kts | 167° |
| 2026-05-05 18:53 | 53.54859 | 10.26785 | 10550 ft | 327 kts | 166° |
| 2026-05-05 18:53 | 53.52597 | 10.27824 | 10984 ft | 344 kts | 166° |
| 2026-05-05 18:53 | 53.50258 | 10.28895 | 11520 ft | 355 kts | 166° |
| 2026-05-05 18:53 | 53.47860 | 10.29990 | 12292 ft | 358 kts | 166° |
| 2026-05-05 18:54 | 53.45442 | 10.31093 | 13067 ft | 363 kts | 166° |
| 2026-05-05 18:54 | 53.43021 | 10.32193 | 13821 ft | 367 kts | 166° |
| 2026-05-05 18:54 | 53.40538 | 10.33313 | 14508 ft | 371 kts | 166° |
| 2026-05-05 18:54 | 53.38030 | 10.34441 | 15191 ft | 375 kts | 166° |
| 2026-05-05 18:55 | 53.35503 | 10.35577 | 15899 ft | 378 kts | 166° |
| 2026-05-05 18:55 | 53.32949 | 10.36725 | 16596 ft | 382 kts | 166° |
| 2026-05-05 18:55 | 53.30369 | 10.37883 | 17270 ft | 385 kts | 166° |
| 2026-05-05 18:55 | 53.27765 | 10.39050 | 17923 ft | 388 kts | 166° |
| 2026-05-05 18:56 | 53.25145 | 10.40222 | 18584 ft | 391 kts | 166° |
| 2026-05-05 18:56 | 53.22506 | 10.41403 | 19168 ft | 393 kts | 166° |
| 2026-05-05 18:56 | 53.19851 | 10.42587 | 19736 ft | 397 kts | 167° |
| 2026-05-05 18:56 | 53.17168 | 10.43783 | 20304 ft | 400 kts | 167° |
| 2026-05-05 18:57 | 53.14505 | 10.44969 | 20851 ft | 403 kts | 167° |
| 2026-05-05 18:57 | 53.11767 | 10.45970 | 21387 ft | 404 kts | 172° |
| 2026-05-05 18:57 | 53.08986 | 10.46789 | 21939 ft | 407 kts | 172° |
| 2026-05-05 18:57 | 53.06188 | 10.47640 | 22483 ft | 410 kts | 172° |
| 2026-05-05 18:58 | 53.03369 | 10.48511 | 23030 ft | 413 kts | 172° |
| 2026-05-05 18:58 | 53.00528 | 10.49395 | 23545 ft | 416 kts | 172° |
| 2026-05-05 18:58 | 52.97675 | 10.50283 | 23977 ft | 418 kts | 172° |
| 2026-05-05 18:58 | 52.94808 | 10.51174 | 24435 ft | 420 kts | 172° |
| 2026-05-05 18:59 | 52.91918 | 10.52073 | 24880 ft | 422 kts | 172° |
| 2026-05-05 18:59 | 52.89024 | 10.52972 | 25318 ft | 425 kts | 172° |
| 2026-05-05 18:59 | 52.86111 | 10.53874 | 25752 ft | 426 kts | 172° |
| 2026-05-05 18:59 | 52.83189 | 10.54779 | 26173 ft | 429 kts | 173° |
| 2026-05-05 19:00 | 52.80248 | 10.55688 | 26589 ft | 431 kts | 173° |
| 2026-05-05 19:00 | 52.77294 | 10.56600 | 27002 ft | 432 kts | 173° |
| 2026-05-05 19:00 | 52.74328 | 10.57514 | 27427 ft | 434 kts | 173° |
| 2026-05-05 19:00 | 52.71398 | 10.58416 | 27812 ft | 436 kts | 173° |
| 2026-05-05 19:01 | 52.68406 | 10.59337 | 28182 ft | 438 kts | 173° |
| 2026-05-05 19:01 | 52.65408 | 10.60257 | 28617 ft | 438 kts | 173° |
| 2026-05-05 19:01 | 52.62402 | 10.61179 | 28980 ft | 441 kts | 173° |
| 2026-05-05 19:01 | 52.59375 | 10.62105 | 29335 ft | 443 kts | 173° |
| 2026-05-05 19:02 | 52.56337 | 10.63034 | 29705 ft | 445 kts | 173° |
| 2026-05-05 19:02 | 52.53300 | 10.63960 | 30150 ft | 443 kts | 173° |
| 2026-05-05 19:02 | 52.50267 | 10.64887 | 30574 ft | 442 kts | 173° |
| 2026-05-05 19:02 | 52.47252 | 10.65804 | 31009 ft | 440 kts | 173° |
| 2026-05-05 19:03 | 52.44247 | 10.66718 | 31467 ft | 438 kts | 173° |
| 2026-05-05 19:03 | 52.41259 | 10.67624 | 31920 ft | 435 kts | 173° |
| 2026-05-05 19:03 | 52.38284 | 10.68527 | 32374 ft | 433 kts | 173° |
| 2026-05-05 19:03 | 52.35331 | 10.69421 | 32812 ft | 431 kts | 173° |
| 2026-05-05 19:04 | 52.32384 | 10.70311 | 33245 ft | 429 kts | 173° |
| 2026-05-05 19:04 | 52.29455 | 10.71195 | 33700 ft | 427 kts | 173° |
| 2026-05-05 19:04 | 52.26540 | 10.72075 | 34078 ft | 425 kts | 173° |
| 2026-05-05 19:04 | 52.23631 | 10.72951 | 34393 ft | 425 kts | 173° |
| 2026-05-05 19:05 | 52.20716 | 10.73826 | 34660 ft | 426 kts | 173° |
| 2026-05-05 19:05 | 52.17798 | 10.74703 | 34927 ft | 427 kts | 173° |
| 2026-05-05 19:05 | 52.14912 | 10.75568 | 35192 ft | 428 kts | 173° |
| 2026-05-05 19:05 | 52.11978 | 10.76448 | 35450 ft | 428 kts | 173° |
| 2026-05-05 19:06 | 52.09048 | 10.77325 | 35699 ft | 429 kts | 173° |
| 2026-05-05 19:06 | 52.06104 | 10.78203 | 35947 ft | 430 kts | 173° |
| 2026-05-05 19:06 | 52.03161 | 10.79080 | 36188 ft | 430 kts | 173° |
| 2026-05-05 19:06 | 52.00217 | 10.79960 | 36469 ft | 430 kts | 173° |
| 2026-05-05 19:07 | 51.97279 | 10.80833 | 36752 ft | 429 kts | 173° |
| 2026-05-05 19:07 | 51.95290 | 10.81424 | 36832 ft | 430 kts | 173° |
| 2026-05-05 19:07 | 51.88451 | 10.83453 | 36842 ft | 428 kts | 173° |
| 2026-05-05 19:08 | 51.82584 | 10.85188 | 36833 ft | 428 kts | 173° |
| 2026-05-05 19:08 | 51.76721 | 10.86917 | 36835 ft | 428 kts | 173° |
| 2026-05-05 19:09 | 51.70876 | 10.88638 | 36834 ft | 427 kts | 173° |
| 2026-05-05 19:09 | 51.65019 | 10.90211 | 36829 ft | 426 kts | 174° |
| 2026-05-05 19:10 | 51.59162 | 10.91682 | 36828 ft | 426 kts | 174° |
| 2026-05-05 19:10 | 51.53342 | 10.93149 | 36822 ft | 426 kts | 173° |
| 2026-05-05 19:11 | 51.47500 | 10.94618 | 36814 ft | 424 kts | 174° |
| 2026-05-05 19:11 | 51.41668 | 10.96081 | 36814 ft | 424 kts | 174° |
| 2026-05-05 19:12 | 51.35837 | 10.97539 | 36807 ft | 424 kts | 174° |
| 2026-05-05 19:12 | 51.30003 | 10.98995 | 36808 ft | 424 kts | 174° |
| 2026-05-05 19:13 | 51.24172 | 11.00448 | 36803 ft | 424 kts | 173° |
| 2026-05-05 19:13 | 51.19325 | 11.01652 | 36799 ft | 424 kts | 174° |
| 2026-05-05 19:14 | 51.13484 | 11.03099 | 36800 ft | 425 kts | 173° |
| 2026-05-05 19:14 | 51.07648 | 11.04542 | 36800 ft | 424 kts | 173° |
| 2026-05-05 19:15 | 51.01808 | 11.05981 | 36797 ft | 424 kts | 173° |
| 2026-05-05 19:15 | 50.95967 | 11.07417 | 36800 ft | 424 kts | 173° |
| 2026-05-05 19:16 | 50.90131 | 11.08849 | 36806 ft | 424 kts | 173° |
| 2026-05-05 19:16 | 50.84296 | 11.10276 | 36798 ft | 424 kts | 173° |
| 2026-05-05 19:17 | 50.78454 | 11.11703 | 36795 ft | 425 kts | 173° |
| 2026-05-05 19:17 | 50.72599 | 11.13127 | 36797 ft | 426 kts | 173° |
| 2026-05-05 19:18 | 50.66739 | 11.14550 | 36797 ft | 426 kts | 173° |
| 2026-05-05 19:18 | 50.60886 | 11.15968 | 36798 ft | 426 kts | 173° |
| 2026-05-05 19:19 | 50.55028 | 11.17383 | 36800 ft | 426 kts | 173° |
| 2026-05-05 19:19 | 50.49175 | 11.18793 | 36796 ft | 425 kts | 173° |
| 2026-05-05 19:20 | 50.43347 | 11.20193 | 36792 ft | 426 kts | 173° |
| 2026-05-05 19:20 | 50.37478 | 11.21601 | 36792 ft | 426 kts | 173° |
| 2026-05-05 19:21 | 50.31609 | 11.23005 | 36784 ft | 427 kts | 173° |
| 2026-05-05 19:21 | 50.25722 | 11.24409 | 36796 ft | 428 kts | 173° |
| 2026-05-05 19:22 | 50.19981 | 11.25775 | 36798 ft | 428 kts | 173° |
| 2026-05-05 19:22 | 50.14262 | 11.27133 | 36790 ft | 427 kts | 173° |
| 2026-05-05 19:23 | 50.08375 | 11.28527 | 36792 ft | 428 kts | 173° |
| 2026-05-05 19:23 | 50.02508 | 11.29913 | 36793 ft | 430 kts | 173° |
| 2026-05-05 19:24 | 49.96585 | 11.31309 | 36798 ft | 429 kts | 173° |
| 2026-05-05 19:24 | 49.90680 | 11.32697 | 36795 ft | 430 kts | 173° |
| 2026-05-05 19:25 | 49.84764 | 11.34084 | 36797 ft | 430 kts | 173° |
| 2026-05-05 19:25 | 49.78831 | 11.35472 | 36812 ft | 431 kts | 173° |
| 2026-05-05 19:26 | 49.72892 | 11.36858 | 36797 ft | 431 kts | 173° |
| 2026-05-05 19:26 | 49.66965 | 11.38238 | 36807 ft | 431 kts | 173° |
| 2026-05-05 19:27 | 49.61031 | 11.39617 | 36813 ft | 430 kts | 173° |
| 2026-05-05 19:27 | 49.55111 | 11.40860 | 36813 ft | 429 kts | 176° |
| 2026-05-05 19:28 | 49.49205 | 11.41845 | 36816 ft | 429 kts | 175° |
| 2026-05-05 19:28 | 49.43275 | 11.42860 | 36824 ft | 429 kts | 175° |
| 2026-05-05 19:29 | 49.37345 | 11.43875 | 36826 ft | 428 kts | 176° |
| 2026-05-05 19:29 | 49.31440 | 11.44883 | 36820 ft | 427 kts | 176° |
| 2026-05-05 19:30 | 49.25529 | 11.45890 | 36826 ft | 427 kts | 176° |
| 2026-05-05 19:30 | 49.19621 | 11.46894 | 36820 ft | 427 kts | 176° |
| 2026-05-05 19:31 | 49.13714 | 11.47895 | 36815 ft | 427 kts | 176° |
| 2026-05-05 19:31 | 49.07808 | 11.48894 | 36817 ft | 427 kts | 176° |
| 2026-05-05 19:32 | 49.01907 | 11.49890 | 36819 ft | 427 kts | 176° |
| 2026-05-05 19:32 | 48.96038 | 11.50878 | 36804 ft | 426 kts | 176° |
| 2026-05-05 19:33 | 48.90140 | 11.51868 | 36806 ft | 426 kts | 176° |
| 2026-05-05 19:33 | 48.84238 | 11.52857 | 36803 ft | 426 kts | 176° |
| 2026-05-05 19:34 | 48.78345 | 11.53842 | 36801 ft | 426 kts | 176° |
| 2026-05-05 19:35 | 48.69497 | 11.55316 | 36796 ft | 427 kts | 176° |
| 2026-05-05 19:35 | 48.63582 | 11.56299 | 36804 ft | 428 kts | 176° |
| 2026-05-05 19:36 | 48.57668 | 11.57279 | 36827 ft | 428 kts | 176° |
| 2026-05-05 19:36 | 48.51749 | 11.58258 | 36831 ft | 428 kts | 176° |
| 2026-05-05 19:37 | 48.45872 | 11.59228 | 36826 ft | 428 kts | 177° |
| 2026-05-05 19:37 | 48.39934 | 11.60205 | 36831 ft | 429 kts | 177° |
| 2026-05-05 19:38 | 48.34005 | 11.61178 | 36825 ft | 429 kts | 177° |
| 2026-05-05 19:38 | 48.28075 | 11.62150 | 36832 ft | 429 kts | 177° |
| 2026-05-05 19:39 | 48.22143 | 11.63119 | 36809 ft | 429 kts | 177° |
| 2026-05-05 19:39 | 48.16207 | 11.64087 | 36833 ft | 429 kts | 177° |
| 2026-05-05 19:40 | 48.10332 | 11.65043 | 36846 ft | 428 kts | 177° |
| 2026-05-05 19:40 | 48.04400 | 11.66005 | 36846 ft | 428 kts | 177° |
| 2026-05-05 19:41 | 47.98486 | 11.66963 | 36841 ft | 427 kts | 177° |
| 2026-05-05 19:41 | 47.92575 | 11.67918 | 36845 ft | 427 kts | 177° |
| 2026-05-05 19:42 | 47.86698 | 11.68865 | 36844 ft | 427 kts | 177° |
| 2026-05-05 19:42 | 47.80787 | 11.69816 | 36843 ft | 427 kts | 178° |
| 2026-05-05 19:43 | 47.74904 | 11.70760 | 36843 ft | 427 kts | 178° |
| 2026-05-05 19:43 | 47.68995 | 11.71706 | 36841 ft | 427 kts | 178° |
| 2026-05-05 19:44 | 47.63075 | 11.72652 | 36842 ft | 427 kts | 177° |
| 2026-05-05 19:44 | 47.57168 | 11.73593 | 36844 ft | 427 kts | 178° |
| 2026-05-05 19:45 | 47.51260 | 11.74533 | 36844 ft | 427 kts | 178° |
| 2026-05-05 19:45 | 47.45347 | 11.75472 | 36832 ft | 428 kts | 177° |
| 2026-05-05 19:46 | 47.39408 | 11.76411 | 36836 ft | 429 kts | 178° |
| 2026-05-05 19:46 | 47.33591 | 11.76270 | 36875 ft | 418 kts | 192° |
| 2026-05-05 19:47 | 47.27791 | 11.75023 | 36853 ft | 420 kts | 192° |
| 2026-05-05 19:47 | 47.22014 | 11.73715 | 36893 ft | 421 kts | 192° |
| 2026-05-05 19:48 | 47.16246 | 11.72380 | 36873 ft | 421 kts | 192° |
| 2026-05-05 19:48 | 47.10491 | 11.71051 | 36888 ft | 407 kts | 192° |
| 2026-05-05 19:48 | 47.07755 | 11.70420 | 36941 ft | 388 kts | 192° |
| 2026-05-05 19:49 | 47.05139 | 11.69817 | 36935 ft | 374 kts | 192° |
| 2026-05-05 19:49 | 47.03462 | 11.69429 | 36933 ft | 363 kts | 193° |
| 2026-05-05 19:49 | 47.00340 | 11.67925 | 36904 ft | 349 kts | 207° |
| 2026-05-05 19:50 | 46.95863 | 11.65033 | 36891 ft | 353 kts | 206° |
| 2026-05-05 19:50 | 46.91399 | 11.62091 | 36922 ft | 352 kts | 207° |
| 2026-05-05 19:51 | 46.86936 | 11.59116 | 36932 ft | 352 kts | 207° |
| 2026-05-05 19:51 | 46.82507 | 11.56160 | 36921 ft | 353 kts | 207° |
| 2026-05-05 19:52 | 46.78009 | 11.53162 | 36980 ft | 356 kts | 207° |
| 2026-05-05 19:52 | 46.73506 | 11.50168 | 36907 ft | 353 kts | 207° |
| 2026-05-05 19:53 | 46.69159 | 11.46868 | 36943 ft | 351 kts | 223° |
| 2026-05-05 19:53 | 46.65763 | 11.41791 | 36932 ft | 351 kts | 227° |
| 2026-05-05 19:54 | 46.62419 | 11.36599 | 36980 ft | 352 kts | 227° |
| 2026-05-05 19:54 | 46.59129 | 11.31406 | 36997 ft | 346 kts | 227° |
| 2026-05-05 19:55 | 46.55880 | 11.26249 | 36965 ft | 342 kts | 227° |
| 2026-05-05 19:55 | 46.52684 | 11.21184 | 36969 ft | 345 kts | 227° |
| 2026-05-05 19:56 | 46.49411 | 11.16004 | 36997 ft | 352 kts | 227° |
| 2026-05-05 19:56 | 46.46047 | 11.10690 | 36974 ft | 361 kts | 227° |
| 2026-05-05 19:57 | 46.42608 | 11.05269 | 36980 ft | 369 kts | 228° |
| 2026-05-05 19:57 | 46.39089 | 10.99736 | 37031 ft | 370 kts | 228° |
| 2026-05-05 19:57 | 46.37375 | 10.97043 | 36906 ft | 358 kts | 228° |
| 2026-05-05 19:58 | 46.35706 | 10.94426 | 36651 ft | 350 kts | 228° |
| 2026-05-05 19:58 | 46.34075 | 10.91868 | 36389 ft | 342 kts | 228° |
| 2026-05-05 19:58 | 46.32468 | 10.89351 | 35884 ft | 339 kts | 228° |
| 2026-05-05 19:58 | 46.30918 | 10.86809 | 35256 ft | 334 kts | 236° |
| 2026-05-05 19:59 | 46.29805 | 10.83886 | 34670 ft | 328 kts | 242° |
| 2026-05-05 19:59 | 46.28757 | 10.80985 | 34231 ft | 324 kts | 242° |
| 2026-05-05 19:59 | 46.27748 | 10.78170 | 34090 ft | 315 kts | 242° |
| 2026-05-05 20:00 | 46.25810 | 10.72679 | 34060 ft | 296 kts | 243° |
| 2026-05-05 20:00 | 46.24891 | 10.70053 | 33975 ft | 291 kts | 242° |
| 2026-05-05 20:00 | 46.23981 | 10.67454 | 33966 ft | 289 kts | 242° |
| 2026-05-05 20:00 | 46.23119 | 10.64986 | 34002 ft | 290 kts | 242° |
| 2026-05-05 20:01 | 46.22506 | 10.63233 | 33981 ft | 290 kts | 242° |
| 2026-05-05 20:01 | 46.21595 | 10.60624 | 33645 ft | 291 kts | 242° |
| 2026-05-05 20:01 | 46.20679 | 10.58009 | 33056 ft | 293 kts | 242° |
| 2026-05-05 20:01 | 46.19760 | 10.55388 | 32450 ft | 294 kts | 242° |
| 2026-05-05 20:02 | 46.18828 | 10.52731 | 31861 ft | 297 kts | 242° |
| 2026-05-05 20:02 | 46.17891 | 10.50060 | 31309 ft | 299 kts | 242° |
| 2026-05-05 20:02 | 46.16948 | 10.47378 | 30723 ft | 300 kts | 242° |
| 2026-05-05 20:02 | 46.16018 | 10.44731 | 30163 ft | 300 kts | 242° |
| 2026-05-05 20:03 | 46.15069 | 10.42042 | 29498 ft | 301 kts | 242° |
| 2026-05-05 20:03 | 46.14117 | 10.39340 | 28864 ft | 303 kts | 242° |
| 2026-05-05 20:03 | 46.13162 | 10.36631 | 28201 ft | 303 kts | 241° |
| 2026-05-05 20:03 | 46.12208 | 10.33930 | 27576 ft | 301 kts | 241° |
| 2026-05-05 20:04 | 46.11258 | 10.31246 | 26930 ft | 300 kts | 241° |
| 2026-05-05 20:04 | 46.10314 | 10.28581 | 26299 ft | 297 kts | 241° |
| 2026-05-05 20:04 | 46.09381 | 10.25945 | 25721 ft | 294 kts | 240° |
| 2026-05-05 20:04 | 46.08457 | 10.23336 | 25124 ft | 292 kts | 240° |
| 2026-05-05 20:05 | 46.07535 | 10.20741 | 24550 ft | 290 kts | 240° |
| 2026-05-05 20:05 | 46.06617 | 10.18158 | 24010 ft | 289 kts | 240° |
| 2026-05-05 20:05 | 46.05697 | 10.15574 | 23397 ft | 288 kts | 240° |
| 2026-05-05 20:05 | 46.04785 | 10.13012 | 22764 ft | 287 kts | 240° |
| 2026-05-05 20:06 | 46.03906 | 10.10425 | 22076 ft | 288 kts | 242° |
| 2026-05-05 20:06 | 46.03041 | 10.07837 | 21440 ft | 287 kts | 242° |
| 2026-05-05 20:06 | 46.02184 | 10.05279 | 21062 ft | 278 kts | 242° |
| 2026-05-05 20:06 | 46.01359 | 10.02823 | 21026 ft | 269 kts | 242° |
| 2026-05-05 20:07 | 46.00548 | 10.00417 | 21027 ft | 267 kts | 242° |
| 2026-05-05 20:07 | 45.99742 | 9.98022 | 20969 ft | 266 kts | 242° |
| 2026-05-05 20:07 | 45.98928 | 9.95611 | 20504 ft | 268 kts | 242° |
| 2026-05-05 20:07 | 45.98113 | 9.93197 | 20000 ft | 268 kts | 242° |
| 2026-05-05 20:08 | 45.97309 | 9.90820 | 19553 ft | 268 kts | 242° |
| 2026-05-05 20:08 | 45.96491 | 9.88400 | 19063 ft | 270 kts | 242° |
| 2026-05-05 20:08 | 45.95670 | 9.85973 | 18603 ft | 269 kts | 242° |
| 2026-05-05 20:08 | 45.94849 | 9.83552 | 18101 ft | 268 kts | 242° |
| 2026-05-05 20:09 | 45.94037 | 9.81157 | 17544 ft | 264 kts | 242° |
| 2026-05-05 20:09 | 45.93234 | 9.78794 | 17032 ft | 264 kts | 243° |
| 2026-05-05 20:09 | 45.92429 | 9.76424 | 16517 ft | 263 kts | 243° |
| 2026-05-05 20:09 | 45.91625 | 9.74060 | 16019 ft | 264 kts | 243° |
| 2026-05-05 20:10 | 45.90709 | 9.71369 | 15441 ft | 264 kts | 244° |
| 2026-05-05 20:10 | 45.90027 | 9.69368 | 15115 ft | 258 kts | 243° |
| 2026-05-05 20:10 | 45.89248 | 9.67085 | 15065 ft | 253 kts | 243° |
| 2026-05-05 20:10 | 45.88473 | 9.64814 | 15007 ft | 253 kts | 243° |
| 2026-05-05 20:11 | 45.87696 | 9.62541 | 14996 ft | 254 kts | 243° |
| 2026-05-05 20:11 | 45.86919 | 9.60272 | 14974 ft | 253 kts | 243° |
| 2026-05-05 20:11 | 45.86142 | 9.57998 | 15034 ft | 254 kts | 243° |
| 2026-05-05 20:11 | 45.85363 | 9.55721 | 15013 ft | 254 kts | 243° |
| 2026-05-05 20:12 | 45.84587 | 9.53456 | 15016 ft | 253 kts | 243° |
| 2026-05-05 20:12 | 45.83809 | 9.51188 | 14999 ft | 253 kts | 243° |
| 2026-05-05 20:12 | 45.83031 | 9.48924 | 15000 ft | 253 kts | 243° |
| 2026-05-05 20:12 | 45.82252 | 9.46661 | 14985 ft | 253 kts | 243° |
| 2026-05-05 20:13 | 45.81470 | 9.44388 | 14991 ft | 254 kts | 243° |
| 2026-05-05 20:13 | 45.80690 | 9.42120 | 14993 ft | 254 kts | 243° |
| 2026-05-05 20:13 | 45.79905 | 9.39840 | 14768 ft | 256 kts | 243° |
| 2026-05-05 20:13 | 45.79109 | 9.37533 | 14383 ft | 260 kts | 243° |
| 2026-05-05 20:14 | 45.78305 | 9.35201 | 13996 ft | 262 kts | 243° |
| 2026-05-05 20:14 | 45.77503 | 9.32881 | 13640 ft | 259 kts | 243° |
| 2026-05-05 20:14 | 45.76713 | 9.30595 | 13262 ft | 254 kts | 243° |
| 2026-05-05 20:14 | 45.75931 | 9.28333 | 12889 ft | 254 kts | 243° |
| 2026-05-05 20:15 | 45.75154 | 9.26088 | 12548 ft | 255 kts | 243° |
| 2026-05-05 20:15 | 45.74365 | 9.23813 | 12187 ft | 256 kts | 243° |
| 2026-05-05 20:15 | 45.73575 | 9.21533 | 11833 ft | 256 kts | 243° |
| 2026-05-05 20:15 | 45.72783 | 9.19252 | 11461 ft | 254 kts | 242° |
| 2026-05-05 20:16 | 45.72003 | 9.17004 | 11115 ft | 252 kts | 242° |
| 2026-05-05 20:16 | 45.71221 | 9.14754 | 10765 ft | 253 kts | 242° |
| 2026-05-05 20:16 | 45.70436 | 9.12497 | 10416 ft | 254 kts | 242° |
| 2026-05-05 20:16 | 45.69646 | 9.10228 | 10093 ft | 255 kts | 242° |
| 2026-05-05 20:17 | 45.68852 | 9.07949 | 9731 ft | 256 kts | 242° |
| 2026-05-05 20:17 | 45.68054 | 9.05660 | 9362 ft | 258 kts | 242° |
| 2026-05-05 20:17 | 45.67253 | 9.03367 | 9046 ft | 257 kts | 242° |
| 2026-05-05 20:17 | 45.66469 | 9.01122 | 8969 ft | 247 kts | 242° |
| 2026-05-05 20:18 | 45.65711 | 8.98953 | 8993 ft | 243 kts | 242° |
| 2026-05-05 20:18 | 45.64954 | 8.96797 | 8992 ft | 243 kts | 242° |
| 2026-05-05 20:18 | 45.64197 | 8.94645 | 8990 ft | 242 kts | 242° |
| 2026-05-05 20:18 | 45.63440 | 8.92493 | 8990 ft | 242 kts | 242° |
| 2026-05-05 20:19 | 45.62682 | 8.90338 | 8991 ft | 242 kts | 242° |
| 2026-05-05 20:19 | 45.61924 | 8.88189 | 8987 ft | 242 kts | 241° |
| 2026-05-05 20:19 | 45.60903 | 8.86315 | 8969 ft | 239 kts | 216° |
| 2026-05-05 20:19 | 45.59398 | 8.85372 | 8983 ft | 239 kts | 188° |
| 2026-05-05 20:20 | 45.57751 | 8.85597 | 8981 ft | 242 kts | 160° |
| 2026-05-05 20:20 | 45.56374 | 8.86977 | 8984 ft | 247 kts | 131° |
| 2026-05-05 20:20 | 45.55583 | 8.89162 | 8983 ft | 253 kts | 105° |
| 2026-05-05 20:20 | 45.55534 | 8.91644 | 8983 ft | 258 kts | 80° |
| 2026-05-05 20:21 | 45.56233 | 8.94034 | 8987 ft | 261 kts | 55° |
| 2026-05-05 20:21 | 45.57511 | 8.95813 | 8989 ft | 262 kts | 32° |
| 2026-05-05 20:21 | 45.59145 | 8.97060 | 9000 ft | 264 kts | 26° |
| 2026-05-05 20:21 | 45.60774 | 8.98187 | 8985 ft | 264 kts | 25° |
| 2026-05-05 20:22 | 45.62440 | 8.99291 | 8994 ft | 264 kts | 24° |
| 2026-05-05 20:22 | 45.64108 | 9.00381 | 8992 ft | 264 kts | 24° |
| 2026-05-05 20:22 | 45.65797 | 9.01414 | 8978 ft | 263 kts | 15° |
| 2026-05-05 20:22 | 45.67583 | 9.01510 | 8957 ft | 257 kts | 342° |
| 2026-05-05 20:23 | 45.69122 | 9.00302 | 8974 ft | 252 kts | 312° |
| 2026-05-05 20:23 | 45.70022 | 8.98209 | 8977 ft | 247 kts | 283° |
| 2026-05-05 20:23 | 45.70113 | 8.95810 | 8978 ft | 242 kts | 256° |
| 2026-05-05 20:23 | 45.69442 | 8.93626 | 8985 ft | 240 kts | 231° |
| 2026-05-05 20:24 | 45.68206 | 8.92060 | 8984 ft | 239 kts | 209° |
| 2026-05-05 20:24 | 45.66714 | 8.90989 | 8999 ft | 240 kts | 206° |
| 2026-05-05 20:24 | 45.65202 | 8.89965 | 8991 ft | 240 kts | 205° |
| 2026-05-05 20:24 | 45.63681 | 8.88969 | 8998 ft | 240 kts | 204° |
| 2026-05-05 20:25 | 45.62175 | 8.88005 | 8988 ft | 240 kts | 204° |
| 2026-05-05 20:25 | 45.60598 | 8.87267 | 8967 ft | 240 kts | 185° |
| 2026-05-05 20:25 | 45.58965 | 8.87681 | 8980 ft | 243 kts | 155° |
| 2026-05-05 20:25 | 45.57673 | 8.89234 | 8979 ft | 248 kts | 126° |
| 2026-05-05 20:26 | 45.57054 | 8.91540 | 8977 ft | 254 kts | 98° |
| 2026-05-05 20:26 | 45.57254 | 8.94048 | 8984 ft | 259 kts | 70° |
| 2026-05-05 20:26 | 45.58227 | 8.96196 | 8981 ft | 261 kts | 43° |
| 2026-05-05 20:26 | 45.59769 | 8.97548 | 9008 ft | 262 kts | 24° |
| 2026-05-05 20:27 | 45.61435 | 8.98636 | 8997 ft | 264 kts | 24° |
| 2026-05-05 20:27 | 45.63112 | 8.99730 | 8709 ft | 265 kts | 25° |
| 2026-05-05 20:27 | 45.64781 | 9.00833 | 8245 ft | 265 kts | 25° |
| 2026-05-05 20:27 | 45.66506 | 9.01625 | 8061 ft | 257 kts | 2° |
| 2026-05-05 20:28 | 45.68221 | 9.01167 | 8003 ft | 251 kts | 330° |
| 2026-05-05 20:28 | 45.69525 | 8.99574 | 7981 ft | 246 kts | 301° |
| 2026-05-05 20:28 | 45.70114 | 8.97369 | 7975 ft | 234 kts | 273° |
| 2026-05-05 20:28 | 45.69937 | 8.95107 | 7982 ft | 228 kts | 248° |
| 2026-05-05 20:29 | 45.69119 | 8.93194 | 7995 ft | 227 kts | 225° |
| 2026-05-05 20:29 | 45.67876 | 8.91879 | 7997 ft | 226 kts | 207° |
| 2026-05-05 20:29 | 45.66465 | 8.90860 | 8010 ft | 227 kts | 206° |
| 2026-05-05 20:29 | 45.65037 | 8.89879 | 7869 ft | 228 kts | 205° |
| 2026-05-05 20:30 | 45.63598 | 8.88929 | 7471 ft | 229 kts | 204° |
| 2026-05-05 20:30 | 45.62136 | 8.87989 | 7114 ft | 229 kts | 204° |
| 2026-05-05 20:30 | 45.60646 | 8.87317 | 7022 ft | 222 kts | 182° |
| 2026-05-05 20:30 | 45.59145 | 8.87766 | 6987 ft | 225 kts | 153° |
| 2026-05-05 20:31 | 45.57994 | 8.89275 | 6989 ft | 230 kts | 123° |
| 2026-05-05 20:31 | 45.57499 | 8.91446 | 6988 ft | 235 kts | 94° |
| 2026-05-05 20:31 | 45.57780 | 8.93741 | 6985 ft | 239 kts | 66° |
| 2026-05-05 20:31 | 45.58768 | 8.95628 | 6985 ft | 241 kts | 38° |
| 2026-05-05 20:32 | 45.60222 | 8.96814 | 7013 ft | 242 kts | 26° |
| 2026-05-05 20:32 | 45.61740 | 8.97864 | 7005 ft | 243 kts | 26° |
| 2026-05-05 20:32 | 45.63267 | 8.98915 | 6991 ft | 242 kts | 26° |
| 2026-05-05 20:32 | 45.64784 | 8.99962 | 6986 ft | 242 kts | 26° |
| 2026-05-05 20:33 | 45.66361 | 9.00724 | 6961 ft | 240 kts | 3° |
| 2026-05-05 20:33 | 45.67978 | 9.00307 | 6966 ft | 237 kts | 331° |
| 2026-05-05 20:33 | 45.69227 | 8.98819 | 6788 ft | 235 kts | 302° |
| 2026-05-05 20:33 | 45.69813 | 8.96681 | 6447 ft | 234 kts | 274° |
| 2026-05-05 20:34 | 45.69601 | 8.94396 | 6079 ft | 232 kts | 244° |
| 2026-05-05 20:34 | 45.68693 | 8.92616 | 5963 ft | 222 kts | 218° |
| 2026-05-05 20:34 | 45.67379 | 8.91497 | 5987 ft | 222 kts | 206° |
| 2026-05-05 20:34 | 45.65976 | 8.90509 | 6013 ft | 224 kts | 205° |
| 2026-05-05 20:35 | 45.64570 | 8.89561 | 6000 ft | 224 kts | 204° |
| 2026-05-05 20:35 | 45.63154 | 8.88639 | 5993 ft | 223 kts | 204° |
| 2026-05-05 20:35 | 45.61734 | 8.87738 | 5994 ft | 223 kts | 201° |
| 2026-05-05 20:35 | 45.60220 | 8.87427 | 5958 ft | 221 kts | 172° |
| 2026-05-05 20:36 | 45.58738 | 8.88024 | 6006 ft | 223 kts | 164° |
| 2026-05-05 20:36 | 45.57238 | 8.88626 | 6001 ft | 224 kts | 164° |
| 2026-05-05 20:36 | 45.55731 | 8.89173 | 5993 ft | 223 kts | 168° |
| 2026-05-05 20:36 | 45.54211 | 8.89648 | 5995 ft | 224 kts | 169° |
| 2026-05-05 20:37 | 45.52685 | 8.90100 | 5993 ft | 224 kts | 169° |
| 2026-05-05 20:37 | 45.51676 | 8.90392 | 5987 ft | 223 kts | 169° |
| 2026-05-05 20:37 | 45.49635 | 8.90970 | 5989 ft | 223 kts | 169° |
| 2026-05-05 20:37 | 45.48130 | 8.91389 | 5986 ft | 223 kts | 170° |
| 2026-05-05 20:38 | 45.46583 | 8.91815 | 5987 ft | 223 kts | 170° |
| 2026-05-05 20:38 | 45.45072 | 8.92229 | 5980 ft | 218 kts | 170° |
| 2026-05-05 20:38 | 45.43622 | 8.92625 | 5973 ft | 213 kts | 170° |
| 2026-05-05 20:38 | 45.42168 | 8.93021 | 5969 ft | 213 kts | 170° |
| 2026-05-05 20:39 | 45.40718 | 8.93414 | 5983 ft | 212 kts | 170° |
| 2026-05-05 20:39 | 45.39277 | 8.93805 | 5979 ft | 211 kts | 170° |
| 2026-05-05 20:39 | 45.37832 | 8.94197 | 5979 ft | 211 kts | 171° |
| 2026-05-05 20:39 | 45.36399 | 8.94586 | 5982 ft | 209 kts | 171° |
| 2026-05-05 20:40 | 45.34968 | 8.94973 | 5981 ft | 209 kts | 171° |
| 2026-05-05 20:40 | 45.33539 | 8.95360 | 5979 ft | 209 kts | 171° |
| 2026-05-05 20:40 | 45.32108 | 8.95747 | 5979 ft | 209 kts | 171° |
| 2026-05-05 20:40 | 45.30675 | 8.96135 | 5989 ft | 210 kts | 171° |
| 2026-05-05 20:41 | 45.29242 | 8.96525 | 5984 ft | 209 kts | 171° |
| 2026-05-05 20:41 | 45.27810 | 8.96913 | 5964 ft | 209 kts | 171° |
| 2026-05-05 20:41 | 45.26380 | 8.97301 | 5963 ft | 209 kts | 171° |
| 2026-05-05 20:41 | 45.24948 | 8.97690 | 5969 ft | 210 kts | 171° |
| 2026-05-05 20:42 | 45.23512 | 8.98079 | 5965 ft | 210 kts | 171° |
| 2026-05-05 20:42 | 45.22081 | 8.98465 | 5969 ft | 209 kts | 171° |
| 2026-05-05 20:42 | 45.20649 | 8.98848 | 5966 ft | 209 kts | 171° |
| 2026-05-05 20:42 | 45.19218 | 8.99232 | 5969 ft | 209 kts | 171° |
| 2026-05-05 20:43 | 45.17786 | 8.99615 | 5970 ft | 209 kts | 171° |
| 2026-05-05 20:43 | 45.16357 | 8.99998 | 5965 ft | 209 kts | 171° |
| 2026-05-05 20:43 | 45.14949 | 9.00375 | 5961 ft | 209 kts | 171° |
| 2026-05-05 20:43 | 45.13531 | 9.00756 | 5968 ft | 209 kts | 171° |
| 2026-05-05 20:44 | 45.12101 | 9.01140 | 5972 ft | 209 kts | 171° |
| 2026-05-05 20:44 | 45.10666 | 9.01421 | 5948 ft | 207 kts | 186° |
| 2026-05-05 20:44 | 45.09353 | 9.00730 | 5893 ft | 204 kts | 220° |
| 2026-05-05 20:44 | 45.08584 | 8.99065 | 5913 ft | 209 kts | 254° |
| 2026-05-05 20:45 | 45.08821 | 8.94913 | 5952 ft | 219 kts | 295° |
| 2026-05-05 20:45 | 45.09912 | 8.93452 | 5880 ft | 223 kts | 335° |
| 2026-05-05 20:45 | 45.11418 | 8.92840 | 5978 ft | 229 kts | 343° |
| 2026-05-05 20:46 | 45.12960 | 8.92252 | 6003 ft | 230 kts | 342° |
| 2026-05-05 20:46 | 45.14495 | 8.91622 | 5983 ft | 229 kts | 341° |
| 2026-05-05 20:46 | 45.16024 | 8.90973 | 5976 ft | 229 kts | 341° |
| 2026-05-05 20:46 | 45.17530 | 8.90321 | 5972 ft | 229 kts | 341° |
| 2026-05-05 20:47 | 45.19058 | 8.89652 | 5884 ft | 230 kts | 340° |
| 2026-05-05 20:47 | 45.20584 | 8.88978 | 5474 ft | 230 kts | 340° |
| 2026-05-05 20:47 | 45.22105 | 8.88301 | 5044 ft | 228 kts | 341° |
| 2026-05-05 20:47 | 45.23602 | 8.87637 | 4659 ft | 225 kts | 342° |
| 2026-05-05 20:48 | 45.24608 | 8.87189 | 4349 ft | 223 kts | 342° |
| 2026-05-05 20:48 | 45.26059 | 8.86541 | 4032 ft | 218 kts | 342° |
| 2026-05-05 20:48 | 45.27503 | 8.85895 | 3953 ft | 218 kts | 342° |
| 2026-05-05 20:48 | 45.28947 | 8.85248 | 3964 ft | 218 kts | 342° |
| 2026-05-05 20:49 | 45.30395 | 8.84598 | 3977 ft | 218 kts | 342° |
| 2026-05-05 20:49 | 45.31842 | 8.83948 | 3990 ft | 218 kts | 342° |
| 2026-05-05 20:49 | 45.33289 | 8.83298 | 3991 ft | 218 kts | 342° |
| 2026-05-05 20:49 | 45.34739 | 8.82645 | 3997 ft | 218 kts | 342° |
| 2026-05-05 20:50 | 45.36187 | 8.81994 | 3990 ft | 218 kts | 342° |
| 2026-05-05 20:50 | 45.37635 | 8.81343 | 3989 ft | 218 kts | 342° |
| 2026-05-05 20:50 | 45.39081 | 8.80690 | 3989 ft | 218 kts | 342° |
| 2026-05-05 20:50 | 45.40521 | 8.80013 | 3986 ft | 218 kts | 338° |
| 2026-05-05 20:51 | 45.41939 | 8.79236 | 3874 ft | 219 kts | 342° |
| 2026-05-05 20:51 | 45.43412 | 8.78725 | 3499 ft | 217 kts | 349° |
| 2026-05-05 20:51 | 45.44883 | 8.78338 | 3104 ft | 212 kts | 350° |
| 2026-05-05 20:51 | 45.46271 | 8.77963 | 2969 ft | 193 kts | 349° |
| 2026-05-05 20:52 | 45.47527 | 8.77619 | 2944 ft | 182 kts | 350° |
| 2026-05-05 20:52 | 45.48778 | 8.77274 | 3125 ft | 184 kts | 349° |
| 2026-05-05 20:52 | 45.50033 | 8.76929 | 2993 ft | 183 kts | 350° |
| 2026-05-05 20:52 | 45.51281 | 8.76587 | 2798 ft | 182 kts | 350° |
| 2026-05-05 20:53 | 45.52525 | 8.76244 | 2551 ft | 182 kts | 350° |
| 2026-05-05 20:53 | 45.53745 | 8.75907 | 2317 ft | 170 kts | 350° |
| 2026-05-05 20:53 | 45.54834 | 8.75608 | 2118 ft | 151 kts | 351° |
| 2026-05-05 20:53 | 45.55754 | 8.75354 | 1942 ft | 146 kts | 351° |
| 2026-05-05 20:54 | 45.56650 | 8.75107 | 1780 ft | 144 kts | 351° |
| 2026-05-05 20:54 | 45.57620 | 8.74840 | 1561 ft | 139 kts | 350° |
| 2026-05-05 20:54 | 45.58568 | 8.74591 | 1326 ft | 139 kts | 350° |
| 2026-05-05 20:54 | 45.59505 | 8.74338 | 1154 ft | 137 kts | 349° |
| 2026-05-05 20:55 | 45.60441 | 8.74077 | 990 ft | 136 kts | 348° |
| 2026-05-05 20:55 | 45.61353 | 8.73814 | 836 ft | 133 kts | 349° |
| 2026-05-05 20:55 | 45.62246 | 8.73563 | 726 ft | 123 kts | 349° |
| 2026-05-05 20:55 | 45.62952 | 8.73370 | 733 ft | 72 kts | 348° |
| 2026-05-05 20:56 | 45.63241 | 8.73106 | 742 ft | 39 kts | 307° |
| 2026-05-05 20:56 | 45.63354 | 8.72869 | 745 ft | 17 kts | 303° |
| 2026-05-05 20:56 | 45.63404 | 8.72725 | 745 ft | 16 kts | 283° |
| 2026-05-05 20:56 | 45.63397 | 8.72545 | 747 ft | 24 kts | 259° |
| 2026-05-05 20:57 | 45.63362 | 8.72292 | 748 ft | 24 kts | 259° |
| 2026-05-05 20:57 | 45.63337 | 8.72105 | 751 ft | 16 kts | 259° |
| 2026-05-05 20:57 | 45.63331 | 8.72063 | 747 ft | 0 kts | 259° |
| 2026-05-05 20:59 | 45.63330 | 8.72054 | 747 ft | 6 kts | 259° |
| 2026-05-05 20:59 | 45.63254 | 8.71979 | 749 ft | 21 kts | 173° |
| 2026-05-05 20:59 | 45.63107 | 8.72018 | 746 ft | 20 kts | 168° |
| 2026-05-05 20:59 | 45.63004 | 8.72047 | 743 ft | 8 kts | 168° |
| 2026-05-05 21:00 | 45.62966 | 8.72058 | 744 ft | 6 kts | 170° |
| 2026-05-05 21:00 | 45.62938 | 8.72065 | 742 ft | 7 kts | 169° |
| 2026-05-05 21:00 | 45.62917 | 8.72071 | 742 ft | 0 kts | 169° |
| 2026-05-05 21:01 | 45.62891 | 8.72078 | 742 ft | 8 kts | 169° |
| 2026-05-05 21:01 | 45.62833 | 8.72093 | 740 ft | 8 kts | 168° |
| 2026-05-05 21:02 | 45.62737 | 8.72120 | 739 ft | 21 kts | 169° |
| 2026-05-05 21:02 | 45.62565 | 8.72168 | 734 ft | 25 kts | 168° |
| 2026-05-05 21:02 | 45.62406 | 8.72196 | 732 ft | 18 kts | 201° |
| 2026-05-05 21:02 | 45.62367 | 8.72115 | 732 ft | 11 kts | 253° |
| 2026-05-05 21:03 | 45.62347 | 8.71948 | 732 ft | 17 kts | 280° |
| 2026-05-05 21:03 | 45.62425 | 8.71894 | 733 ft | 8 kts | 4° |
| 2026-05-05 21:03 | 45.62449 | 8.71928 | 734 ft | 3 kts | 73° |
| 2026-05-05 21:03 | 45.62458 | 8.71988 | 734 ft | 0 kts | 79° |